sensor_id;sensor_type;location;lat;lon;timestamp;P1;durP1;ratioP1;P2;durP2;ratioP2
11267;SDS011;49397;47.474;9.416;2022-12-18T00:00:47;47.90;;;21.37;;
11267;SDS011;49397;47.474;9.416;2022-12-18T00:03:13;41.93;;;21.73;;
11267;SDS011;49397;47.474;9.416;2022-12-18T00:05:46;48.50;;;21.67;;
11267;SDS011;49397;47.474;9.416;2022-12-18T00:08:15;46.10;;;22.00;;
11267;SDS011;49397;47.474;9.416;2022-12-18T00:10:41;47.43;;;21.90;;
11267;SDS011;49397;47.474;9.416;2022-12-18T00:13:06;42.70;;;19.37;;
11267;SDS011;49397;47.474;9.416;2022-12-18T00:15:35;37.00;;;19.07;;
11267;SDS011;49397;47.474;9.416;2022-12-18T00:18:02;43.03;;;18.03;;
11267;SDS011;49397;47.474;9.416;2022-12-18T00:20:27;38.70;;;19.27;;
11267;SDS011;49397;47.474;9.416;2022-12-18T00:22:53;38.27;;;18.73;;
11267;SDS011;49397;47.474;9.416;2022-12-18T00:25:19;45.87;;;19.17;;
11267;SDS011;49397;47.474;9.416;2022-12-18T00:27:45;42.50;;;18.93;;
11267;SDS011;49397;47.474;9.416;2022-12-18T00:30:11;42.53;;;19.13;;
11267;SDS011;49397;47.474;9.416;2022-12-18T00:32:37;37.73;;;18.37;;
11267;SDS011;49397;47.474;9.416;2022-12-18T00:35:02;48.23;;;20.30;;
11267;SDS011;49397;47.474;9.416;2022-12-18T00:37:29;43.60;;;18.73;;
11267;SDS011;49397;47.474;9.416;2022-12-18T00:39:54;43.13;;;20.57;;
11267;SDS011;49397;47.474;9.416;2022-12-18T00:42:20;51.33;;;20.27;;
11267;SDS011;49397;47.474;9.416;2022-12-18T00:45:04;47.07;;;20.27;;
11267;SDS011;49397;47.474;9.416;2022-12-18T00:47:30;49.17;;;21.73;;
11267;SDS011;49397;47.474;9.416;2022-12-18T00:49:55;46.53;;;21.00;;
11267;SDS011;49397;47.474;9.416;2022-12-18T00:52:20;49.57;;;20.57;;
11267;SDS011;49397;47.474;9.416;2022-12-18T00:54:46;44.27;;;21.30;;
11267;SDS011;49397;47.474;9.416;2022-12-18T00:57:11;42.07;;;20.13;;
11267;SDS011;49397;47.474;9.416;2022-12-18T00:59:37;43.53;;;19.73;;
11267;SDS011;49397;47.474;9.416;2022-12-18T01:02:02;46.57;;;20.77;;
11267;SDS011;49397;47.474;9.416;2022-12-18T01:04:30;44.67;;;20.70;;
11267;SDS011;49397;47.474;9.416;2022-12-18T01:06:56;49.10;;;20.77;;
11267;SDS011;49397;47.474;9.416;2022-12-18T01:09:22;47.27;;;20.80;;
11267;SDS011;49397;47.474;9.416;2022-12-18T01:11:47;46.00;;;21.90;;
11267;SDS011;49397;47.474;9.416;2022-12-18T01:14:13;45.47;;;19.73;;
11267;SDS011;49397;47.474;9.416;2022-12-18T01:16:38;45.10;;;19.07;;
11267;SDS011;49397;47.474;9.416;2022-12-18T01:19:04;44.83;;;22.23;;
11267;SDS011;49397;47.474;9.416;2022-12-18T01:21:29;45.13;;;19.87;;
11267;SDS011;49397;47.474;9.416;2022-12-18T01:23:56;47.07;;;19.57;;
11267;SDS011;49397;47.474;9.416;2022-12-18T01:26:22;46.03;;;19.90;;
11267;SDS011;49397;47.474;9.416;2022-12-18T01:28:49;43.23;;;19.17;;
11267;SDS011;49397;47.474;9.416;2022-12-18T01:31:16;39.80;;;19.10;;
11267;SDS011;49397;47.474;9.416;2022-12-18T01:33:44;46.90;;;20.70;;
11267;SDS011;49397;47.474;9.416;2022-12-18T01:36:43;41.17;;;19.47;;
11267;SDS011;49397;47.474;9.416;2022-12-18T01:39:11;46.27;;;19.97;;
11267;SDS011;49397;47.474;9.416;2022-12-18T01:41:38;45.37;;;19.93;;
11267;SDS011;49397;47.474;9.416;2022-12-18T01:49:54;41.07;;;17.90;;
11267;SDS011;49397;47.474;9.416;2022-12-18T01:52:22;44.97;;;20.40;;
11267;SDS011;49397;47.474;9.416;2022-12-18T01:54:51;47.77;;;19.87;;
11267;SDS011;49397;47.474;9.416;2022-12-18T01:57:18;45.70;;;21.40;;
11267;SDS011;49397;47.474;9.416;2022-12-18T01:59:45;44.20;;;20.60;;
11267;SDS011;49397;47.474;9.416;2022-12-18T02:02:15;40.93;;;19.33;;
11267;SDS011;49397;47.474;9.416;2022-12-18T02:04:42;37.07;;;17.73;;
11267;SDS011;49397;47.474;9.416;2022-12-18T02:10:00;44.00;;;19.23;;
11267;SDS011;49397;47.474;9.416;2022-12-18T02:12:39;49.03;;;20.50;;
11267;SDS011;49397;47.474;9.416;2022-12-18T02:15:36;47.67;;;20.47;;
11267;SDS011;49397;47.474;9.416;2022-12-18T02:18:12;45.13;;;20.10;;
11267;SDS011;49397;47.474;9.416;2022-12-18T02:26:49;47.00;;;20.30;;
11267;SDS011;49397;47.474;9.416;2022-12-18T02:29:20;50.63;;;22.00;;
11267;SDS011;49397;47.474;9.416;2022-12-18T02:31:54;42.17;;;19.17;;
11267;SDS011;49397;47.474;9.416;2022-12-18T02:34:23;48.87;;;23.13;;
11267;SDS011;49397;47.474;9.416;2022-12-18T02:36:53;46.80;;;19.57;;
11267;SDS011;49397;47.474;9.416;2022-12-18T02:39:20;44.60;;;18.63;;
11267;SDS011;49397;47.474;9.416;2022-12-18T02:41:47;45.53;;;20.33;;
11267;SDS011;49397;47.474;9.416;2022-12-18T02:44:13;37.43;;;18.20;;
11267;SDS011;49397;47.474;9.416;2022-12-18T02:46:40;45.77;;;21.03;;
11267;SDS011;49397;47.474;9.416;2022-12-18T02:51:55;46.10;;;21.53;;
11267;SDS011;49397;47.474;9.416;2022-12-18T02:57:33;46.57;;;20.00;;
11267;SDS011;49397;47.474;9.416;2022-12-18T03:00:21;49.47;;;20.50;;
11267;SDS011;49397;47.474;9.416;2022-12-18T03:02:57;40.20;;;19.90;;
11267;SDS011;49397;47.474;9.416;2022-12-18T03:05:31;42.30;;;19.37;;
11267;SDS011;49397;47.474;9.416;2022-12-18T03:10:56;41.10;;;18.67;;
11267;SDS011;49397;47.474;9.416;2022-12-18T03:13:30;42.77;;;18.97;;
11267;SDS011;49397;47.474;9.416;2022-12-18T03:15:57;43.43;;;19.83;;
11267;SDS011;49397;47.474;9.416;2022-12-18T03:18:27;42.37;;;20.43;;
11267;SDS011;49397;47.474;9.416;2022-12-18T03:20:58;39.27;;;20.37;;
11267;SDS011;49397;47.474;9.416;2022-12-18T03:23:29;46.87;;;20.47;;
11267;SDS011;49397;47.474;9.416;2022-12-18T03:26:01;47.87;;;20.33;;
11267;SDS011;49397;47.474;9.416;2022-12-18T03:28:30;47.10;;;20.00;;
11267;SDS011;49397;47.474;9.416;2022-12-18T03:31:00;42.67;;;19.17;;
11267;SDS011;49397;47.474;9.416;2022-12-18T03:33:31;40.50;;;18.30;;
11267;SDS011;49397;47.474;9.416;2022-12-18T03:36:03;41.97;;;18.83;;
11267;SDS011;49397;47.474;9.416;2022-12-18T03:38:29;47.27;;;19.23;;
11267;SDS011;49397;47.474;9.416;2022-12-18T03:43:53;54.27;;;20.30;;
11267;SDS011;49397;47.474;9.416;2022-12-18T03:46:30;41.87;;;19.90;;
11267;SDS011;49397;47.474;9.416;2022-12-18T03:52:12;47.10;;;19.37;;
11267;SDS011;49397;47.474;9.416;2022-12-18T03:54:52;44.40;;;19.67;;
11267;SDS011;49397;47.474;9.416;2022-12-18T03:57:21;44.67;;;19.63;;
11267;SDS011;49397;47.474;9.416;2022-12-18T03:59:52;43.60;;;19.93;;
11267;SDS011;49397;47.474;9.416;2022-12-18T04:02:22;41.67;;;19.23;;
11267;SDS011;49397;47.474;9.416;2022-12-18T04:04:50;44.87;;;20.03;;
11267;SDS011;49397;47.474;9.416;2022-12-18T04:07:18;47.27;;;20.47;;
11267;SDS011;49397;47.474;9.416;2022-12-18T04:09:46;41.50;;;19.57;;
11267;SDS011;49397;47.474;9.416;2022-12-18T04:12:14;42.27;;;18.33;;
11267;SDS011;49397;47.474;9.416;2022-12-18T04:14:39;41.30;;;18.63;;
11267;SDS011;49397;47.474;9.416;2022-12-18T04:17:05;41.37;;;18.03;;
11267;SDS011;49397;47.474;9.416;2022-12-18T04:19:30;46.20;;;19.17;;
11267;SDS011;49397;47.474;9.416;2022-12-18T04:21:56;47.83;;;21.37;;
11267;SDS011;49397;47.474;9.416;2022-12-18T04:24:21;49.70;;;20.27;;
11267;SDS011;49397;47.474;9.416;2022-12-18T04:26:47;44.10;;;17.50;;
11267;SDS011;49397;47.474;9.416;2022-12-18T04:29:12;45.77;;;19.47;;
11267;SDS011;49397;47.474;9.416;2022-12-18T04:31:38;39.00;;;18.27;;
11267;SDS011;49397;47.474;9.416;2022-12-18T04:34:03;45.47;;;20.13;;
11267;SDS011;49397;47.474;9.416;2022-12-18T04:36:29;49.53;;;20.10;;
11267;SDS011;49397;47.474;9.416;2022-12-18T04:38:54;43.70;;;20.17;;
11267;SDS011;49397;47.474;9.416;2022-12-18T04:41:20;46.70;;;18.13;;
11267;SDS011;49397;47.474;9.416;2022-12-18T04:43:46;42.57;;;19.20;;
11267;SDS011;49397;47.474;9.416;2022-12-18T04:46:11;39.47;;;18.93;;
11267;SDS011;49397;47.474;9.416;2022-12-18T04:48:37;43.23;;;19.20;;
11267;SDS011;49397;47.474;9.416;2022-12-18T04:51:04;46.20;;;19.40;;
11267;SDS011;49397;47.474;9.416;2022-12-18T04:53:30;38.90;;;18.83;;
11267;SDS011;49397;47.474;9.416;2022-12-18T04:56:03;40.40;;;17.27;;
11267;SDS011;49397;47.474;9.416;2022-12-18T04:58:33;43.50;;;18.00;;
11267;SDS011;49397;47.474;9.416;2022-12-18T05:00:59;41.03;;;18.63;;
11267;SDS011;49397;47.474;9.416;2022-12-18T05:03:25;45.97;;;18.97;;
11267;SDS011;49397;47.474;9.416;2022-12-18T05:05:51;49.37;;;20.10;;
11267;SDS011;49397;47.474;9.416;2022-12-18T05:08:17;42.53;;;19.07;;
11267;SDS011;49397;47.474;9.416;2022-12-18T05:10:43;50.70;;;20.47;;
11267;SDS011;49397;47.474;9.416;2022-12-18T05:13:08;42.77;;;19.73;;
11267;SDS011;49397;47.474;9.416;2022-12-18T05:15:34;41.03;;;17.43;;
11267;SDS011;49397;47.474;9.416;2022-12-18T05:18:00;48.67;;;18.97;;
11267;SDS011;49397;47.474;9.416;2022-12-18T05:20:27;37.00;;;17.47;;
11267;SDS011;49397;47.474;9.416;2022-12-18T05:22:53;42.90;;;18.53;;
11267;SDS011;49397;47.474;9.416;2022-12-18T05:25:19;40.83;;;18.00;;
11267;SDS011;49397;47.474;9.416;2022-12-18T05:27:45;37.90;;;18.17;;
11267;SDS011;49397;47.474;9.416;2022-12-18T05:30:11;42.43;;;18.70;;
11267;SDS011;49397;47.474;9.416;2022-12-18T05:32:37;43.27;;;18.07;;
11267;SDS011;49397;47.474;9.416;2022-12-18T05:35:03;41.13;;;18.70;;
11267;SDS011;49397;47.474;9.416;2022-12-18T05:37:31;46.87;;;18.40;;
11267;SDS011;49397;47.474;9.416;2022-12-18T05:39:56;39.57;;;18.33;;
11267;SDS011;49397;47.474;9.416;2022-12-18T05:42:22;34.90;;;16.60;;
11267;SDS011;49397;47.474;9.416;2022-12-18T05:44:47;45.43;;;17.93;;
11267;SDS011;49397;47.474;9.416;2022-12-18T05:47:13;45.63;;;19.60;;
11267;SDS011;49397;47.474;9.416;2022-12-18T05:49:38;42.53;;;18.10;;
11267;SDS011;49397;47.474;9.416;2022-12-18T05:52:04;48.80;;;17.67;;
11267;SDS011;49397;47.474;9.416;2022-12-18T05:54:30;43.93;;;18.97;;
11267;SDS011;49397;47.474;9.416;2022-12-18T05:56:56;39.90;;;16.13;;
11267;SDS011;49397;47.474;9.416;2022-12-18T05:59:22;41.70;;;17.67;;
11267;SDS011;49397;47.474;9.416;2022-12-18T06:01:47;41.70;;;18.07;;
11267;SDS011;49397;47.474;9.416;2022-12-18T06:04:13;46.13;;;18.40;;
11267;SDS011;49397;47.474;9.416;2022-12-18T06:06:38;36.30;;;16.03;;
11267;SDS011;49397;47.474;9.416;2022-12-18T06:09:04;44.67;;;18.87;;
11267;SDS011;49397;47.474;9.416;2022-12-18T06:11:33;41.50;;;18.37;;
11267;SDS011;49397;47.474;9.416;2022-12-18T06:14:00;46.83;;;18.77;;
11267;SDS011;49397;47.474;9.416;2022-12-18T06:16:26;41.13;;;17.87;;
11267;SDS011;49397;47.474;9.416;2022-12-18T06:18:52;45.17;;;19.30;;
11267;SDS011;49397;47.474;9.416;2022-12-18T06:21:18;45.50;;;19.67;;
11267;SDS011;49397;47.474;9.416;2022-12-18T06:23:43;44.70;;;17.90;;
11267;SDS011;49397;47.474;9.416;2022-12-18T06:26:10;39.93;;;17.10;;
11267;SDS011;49397;47.474;9.416;2022-12-18T06:28:36;38.33;;;17.33;;
11267;SDS011;49397;47.474;9.416;2022-12-18T06:31:02;39.30;;;16.90;;
11267;SDS011;49397;47.474;9.416;2022-12-18T06:33:29;42.40;;;18.30;;
11267;SDS011;49397;47.474;9.416;2022-12-18T06:36:02;43.23;;;19.40;;
11267;SDS011;49397;47.474;9.416;2022-12-18T06:38:30;43.57;;;19.67;;
11267;SDS011;49397;47.474;9.416;2022-12-18T06:40:57;52.57;;;19.37;;
11267;SDS011;49397;47.474;9.416;2022-12-18T06:43:22;39.57;;;18.73;;
11267;SDS011;49397;47.474;9.416;2022-12-18T06:45:48;47.60;;;19.80;;
11267;SDS011;49397;47.474;9.416;2022-12-18T06:48:18;39.03;;;19.03;;
11267;SDS011;49397;47.474;9.416;2022-12-18T06:50:45;48.60;;;19.17;;
11267;SDS011;49397;47.474;9.416;2022-12-18T06:53:10;40.47;;;18.40;;
11267;SDS011;49397;47.474;9.416;2022-12-18T06:55:36;45.17;;;18.50;;
11267;SDS011;49397;47.474;9.416;2022-12-18T06:58:01;50.37;;;18.17;;
11267;SDS011;49397;47.474;9.416;2022-12-18T07:00:27;45.07;;;18.93;;
11267;SDS011;49397;47.474;9.416;2022-12-18T07:02:52;48.10;;;20.13;;
11267;SDS011;49397;47.474;9.416;2022-12-18T07:05:18;43.10;;;18.17;;
11267;SDS011;49397;47.474;9.416;2022-12-18T07:07:43;50.57;;;20.17;;
11267;SDS011;49397;47.474;9.416;2022-12-18T07:10:09;37.83;;;18.50;;
11267;SDS011;49397;47.474;9.416;2022-12-18T07:12:35;41.00;;;19.17;;
11267;SDS011;49397;47.474;9.416;2022-12-18T07:15:00;47.57;;;18.37;;
11267;SDS011;49397;47.474;9.416;2022-12-18T07:17:26;39.63;;;18.37;;
11267;SDS011;49397;47.474;9.416;2022-12-18T07:19:52;41.63;;;19.23;;
11267;SDS011;49397;47.474;9.416;2022-12-18T07:22:17;45.10;;;19.47;;
11267;SDS011;49397;47.474;9.416;2022-12-18T07:24:43;46.43;;;20.23;;
11267;SDS011;49397;47.474;9.416;2022-12-18T07:27:08;44.87;;;22.27;;
11267;SDS011;49397;47.474;9.416;2022-12-18T07:29:34;56.10;;;22.13;;
11267;SDS011;49397;47.474;9.416;2022-12-18T07:31:59;57.33;;;22.90;;
11267;SDS011;49397;47.474;9.416;2022-12-18T07:34:25;46.23;;;19.20;;
11267;SDS011;49397;47.474;9.416;2022-12-18T07:36:50;49.53;;;21.70;;
11267;SDS011;49397;47.474;9.416;2022-12-18T07:39:16;49.50;;;20.30;;
11267;SDS011;49397;47.474;9.416;2022-12-18T07:41:41;43.20;;;20.33;;
11267;SDS011;49397;47.474;9.416;2022-12-18T07:44:11;42.23;;;20.43;;
11267;SDS011;49397;47.474;9.416;2022-12-18T07:46:37;51.43;;;20.27;;
11267;SDS011;49397;47.474;9.416;2022-12-18T07:49:03;50.07;;;20.80;;
11267;SDS011;49397;47.474;9.416;2022-12-18T07:51:29;44.27;;;20.30;;
11267;SDS011;49397;47.474;9.416;2022-12-18T07:53:55;39.53;;;18.10;;
11267;SDS011;49397;47.474;9.416;2022-12-18T07:56:21;41.73;;;19.10;;
11267;SDS011;49397;47.474;9.416;2022-12-18T07:58:47;44.30;;;18.37;;
11267;SDS011;49397;47.474;9.416;2022-12-18T08:01:13;41.47;;;20.40;;
11267;SDS011;49397;47.474;9.416;2022-12-18T08:03:39;42.83;;;19.33;;
11267;SDS011;49397;47.474;9.416;2022-12-18T08:06:06;50.40;;;19.60;;
11267;SDS011;49397;47.474;9.416;2022-12-18T08:08:33;48.20;;;19.30;;
11267;SDS011;49397;47.474;9.416;2022-12-18T08:10:59;50.73;;;19.80;;
11267;SDS011;49397;47.474;9.416;2022-12-18T08:13:25;46.73;;;21.37;;
11267;SDS011;49397;47.474;9.416;2022-12-18T08:15:55;45.10;;;18.10;;
11267;SDS011;49397;47.474;9.416;2022-12-18T08:18:24;55.07;;;19.60;;
11267;SDS011;49397;47.474;9.416;2022-12-18T08:20:50;41.10;;;18.63;;
11267;SDS011;49397;47.474;9.416;2022-12-18T08:23:16;47.63;;;19.70;;
11267;SDS011;49397;47.474;9.416;2022-12-18T08:25:41;48.67;;;20.10;;
11267;SDS011;49397;47.474;9.416;2022-12-18T08:28:07;53.37;;;20.33;;
11267;SDS011;49397;47.474;9.416;2022-12-18T08:30:32;40.60;;;18.03;;
11267;SDS011;49397;47.474;9.416;2022-12-18T08:32:58;44.13;;;17.50;;
11267;SDS011;49397;47.474;9.416;2022-12-18T08:35:23;35.00;;;17.87;;
11267;SDS011;49397;47.474;9.416;2022-12-18T08:37:49;38.83;;;18.20;;
11267;SDS011;49397;47.474;9.416;2022-12-18T08:40:15;40.17;;;16.03;;
11267;SDS011;49397;47.474;9.416;2022-12-18T08:42:40;43.93;;;16.93;;
11267;SDS011;49397;47.474;9.416;2022-12-18T08:45:24;39.80;;;17.93;;
11267;SDS011;49397;47.474;9.416;2022-12-18T08:47:50;45.00;;;17.60;;
11267;SDS011;49397;47.474;9.416;2022-12-18T08:50:15;40.97;;;17.73;;
11267;SDS011;49397;47.474;9.416;2022-12-18T08:52:41;44.40;;;18.63;;
11267;SDS011;49397;47.474;9.416;2022-12-18T08:55:07;39.60;;;18.13;;
11267;SDS011;49397;47.474;9.416;2022-12-18T08:57:33;41.17;;;17.33;;
11267;SDS011;49397;47.474;9.416;2022-12-18T08:59:58;49.00;;;19.73;;
11267;SDS011;49397;47.474;9.416;2022-12-18T09:02:24;38.83;;;18.07;;
11267;SDS011;49397;47.474;9.416;2022-12-18T09:04:49;40.77;;;18.87;;
11267;SDS011;49397;47.474;9.416;2022-12-18T09:07:15;41.90;;;17.37;;
11267;SDS011;49397;47.474;9.416;2022-12-18T09:09:40;40.93;;;17.17;;
11267;SDS011;49397;47.474;9.416;2022-12-18T09:12:06;38.23;;;16.67;;
11267;SDS011;49397;47.474;9.416;2022-12-18T09:14:31;40.23;;;16.57;;
11267;SDS011;49397;47.474;9.416;2022-12-18T09:16:57;44.60;;;19.37;;
11267;SDS011;49397;47.474;9.416;2022-12-18T09:19:22;44.93;;;19.57;;
11267;SDS011;49397;47.474;9.416;2022-12-18T09:21:48;39.73;;;17.27;;
11267;SDS011;49397;47.474;9.416;2022-12-18T09:24:14;35.87;;;16.83;;
11267;SDS011;49397;47.474;9.416;2022-12-18T09:26:40;45.07;;;17.63;;
11267;SDS011;49397;47.474;9.416;2022-12-18T09:29:05;44.77;;;17.90;;
11267;SDS011;49397;47.474;9.416;2022-12-18T09:31:32;33.37;;;17.03;;
11267;SDS011;49397;47.474;9.416;2022-12-18T09:33:59;51.40;;;20.07;;
11267;SDS011;49397;47.474;9.416;2022-12-18T09:36:24;41.90;;;18.80;;
11267;SDS011;49397;47.474;9.416;2022-12-18T09:38:50;50.07;;;18.87;;
11267;SDS011;49397;47.474;9.416;2022-12-18T09:44:00;47.20;;;17.43;;
11267;SDS011;49397;47.474;9.416;2022-12-18T09:46:32;43.97;;;19.47;;
11267;SDS011;49397;47.474;9.416;2022-12-18T09:49:03;38.20;;;18.40;;
11267;SDS011;49397;47.474;9.416;2022-12-18T09:51:45;34.60;;;15.90;;
11267;SDS011;49397;47.474;9.416;2022-12-18T09:54:20;43.40;;;17.23;;
11267;SDS011;49397;47.474;9.416;2022-12-18T09:56:50;31.57;;;15.10;;
11267;SDS011;49397;47.474;9.416;2022-12-18T09:59:21;32.47;;;15.17;;
11267;SDS011;49397;47.474;9.416;2022-12-18T10:01:49;40.37;;;18.23;;
11267;SDS011;49397;47.474;9.416;2022-12-18T10:04:15;39.53;;;16.90;;
11267;SDS011;49397;47.474;9.416;2022-12-18T10:10:13;34.47;;;16.13;;
11267;SDS011;49397;47.474;9.416;2022-12-18T10:12:32;40.63;;;17.70;;
11267;SDS011;49397;47.474;9.416;2022-12-18T10:20:49;47.00;;;18.43;;
11267;SDS011;49397;47.474;9.416;2022-12-18T10:23:27;41.63;;;18.13;;
11267;SDS011;49397;47.474;9.416;2022-12-18T10:26:05;45.73;;;18.37;;
11267;SDS011;49397;47.474;9.416;2022-12-18T10:28:34;45.07;;;18.00;;
11267;SDS011;49397;47.474;9.416;2022-12-18T10:31:01;38.33;;;16.07;;
11267;SDS011;49397;47.474;9.416;2022-12-18T10:33:31;45.40;;;19.70;;
11267;SDS011;49397;47.474;9.416;2022-12-18T10:35:58;42.03;;;17.23;;
11267;SDS011;49397;47.474;9.416;2022-12-18T10:38:25;42.37;;;19.20;;
11267;SDS011;49397;47.474;9.416;2022-12-18T10:40:59;36.53;;;15.63;;
11267;SDS011;49397;47.474;9.416;2022-12-18T10:43:27;35.57;;;17.47;;
11267;SDS011;49397;47.474;9.416;2022-12-18T10:51:27;38.13;;;16.50;;
11267;SDS011;49397;47.474;9.416;2022-12-18T10:56:29;36.63;;;15.57;;
11267;SDS011;49397;47.474;9.416;2022-12-18T10:58:58;38.40;;;16.93;;
11267;SDS011;49397;47.474;9.416;2022-12-18T11:01:25;38.90;;;17.47;;
11267;SDS011;49397;47.474;9.416;2022-12-18T11:06:22;37.57;;;17.37;;
11267;SDS011;49397;47.474;9.416;2022-12-18T11:08:59;42.53;;;17.77;;
11267;SDS011;49397;47.474;9.416;2022-12-18T11:11:25;42.97;;;18.67;;
11267;SDS011;49397;47.474;9.416;2022-12-18T11:16:34;35.17;;;15.90;;
11267;SDS011;49397;47.474;9.416;2022-12-18T11:19:13;40.43;;;17.17;;
11267;SDS011;49397;47.474;9.416;2022-12-18T11:21:40;39.67;;;16.33;;
11267;SDS011;49397;47.474;9.416;2022-12-18T11:24:08;31.23;;;15.00;;
11267;SDS011;49397;47.474;9.416;2022-12-18T11:27:16;32.67;;;15.07;;
11267;SDS011;49397;47.474;9.416;2022-12-18T11:29:43;39.83;;;15.70;;
11267;SDS011;49397;47.474;9.416;2022-12-18T11:35:04;39.83;;;17.07;;
11267;SDS011;49397;47.474;9.416;2022-12-18T11:37:41;35.03;;;16.00;;
11267;SDS011;49397;47.474;9.416;2022-12-18T11:40:15;33.67;;;17.00;;
11267;SDS011;49397;47.474;9.416;2022-12-18T11:45:42;40.80;;;17.03;;
11267;SDS011;49397;47.474;9.416;2022-12-18T11:48:17;41.43;;;18.03;;
11267;SDS011;49397;47.474;9.416;2022-12-18T11:53:15;39.23;;;15.87;;
11267;SDS011;49397;47.474;9.416;2022-12-18T12:15:01;45.07;;;17.00;;
11267;SDS011;49397;47.474;9.416;2022-12-18T12:17:38;42.43;;;16.73;;
11267;SDS011;49397;47.474;9.416;2022-12-18T12:25:44;37.53;;;16.37;;
11267;SDS011;49397;47.474;9.416;2022-12-18T12:34:34;32.27;;;15.73;;
11267;SDS011;49397;47.474;9.416;2022-12-18T12:37:21;38.17;;;15.03;;
11267;SDS011;49397;47.474;9.416;2022-12-18T12:39:48;33.33;;;15.30;;
11267;SDS011;49397;47.474;9.416;2022-12-18T12:45:29;42.30;;;15.83;;
11267;SDS011;49397;47.474;9.416;2022-12-18T12:48:19;36.67;;;16.33;;
11267;SDS011;49397;47.474;9.416;2022-12-18T12:50:56;35.97;;;15.83;;
11267;SDS011;49397;47.474;9.416;2022-12-18T12:53:29;36.73;;;16.47;;
11267;SDS011;49397;47.474;9.416;2022-12-18T12:55:58;38.57;;;17.20;;
11267;SDS011;49397;47.474;9.416;2022-12-18T12:58:36;34.23;;;16.53;;
11267;SDS011;49397;47.474;9.416;2022-12-18T13:06:47;42.60;;;17.80;;
11267;SDS011;49397;47.474;9.416;2022-12-18T13:09:21;38.27;;;16.70;;
11267;SDS011;49397;47.474;9.416;2022-12-18T13:11:46;37.70;;;17.03;;
11267;SDS011;49397;47.474;9.416;2022-12-18T13:14:35;49.13;;;16.83;;
11267;SDS011;49397;47.474;9.416;2022-12-18T13:22:37;37.03;;;17.17;;
11267;SDS011;49397;47.474;9.416;2022-12-18T13:28:03;41.60;;;15.87;;
11267;SDS011;49397;47.474;9.416;2022-12-18T13:45:45;41.00;;;17.27;;
11267;SDS011;49397;47.474;9.416;2022-12-18T13:48:22;43.43;;;17.80;;
11267;SDS011;49397;47.474;9.416;2022-12-18T13:50:59;35.93;;;15.80;;
11267;SDS011;49397;47.474;9.416;2022-12-18T13:56:15;40.83;;;17.03;;
11267;SDS011;49397;47.474;9.416;2022-12-18T13:58:42;39.50;;;16.83;;
11267;SDS011;49397;47.474;9.416;2022-12-18T14:01:23;35.10;;;16.03;;
11267;SDS011;49397;47.474;9.416;2022-12-18T14:03:49;37.00;;;15.57;;
11267;SDS011;49397;47.474;9.416;2022-12-18T14:06:14;35.67;;;15.17;;
11267;SDS011;49397;47.474;9.416;2022-12-18T14:08:40;40.00;;;15.70;;
11267;SDS011;49397;47.474;9.416;2022-12-18T14:11:17;38.03;;;16.40;;
11267;SDS011;49397;47.474;9.416;2022-12-18T14:13:47;38.53;;;16.17;;
11267;SDS011;49397;47.474;9.416;2022-12-18T14:16:14;40.93;;;16.90;;
11267;SDS011;49397;47.474;9.416;2022-12-18T14:18:45;34.90;;;16.23;;
11267;SDS011;49397;47.474;9.416;2022-12-18T14:21:27;34.10;;;15.77;;
11267;SDS011;49397;47.474;9.416;2022-12-18T14:26:50;33.90;;;16.30;;
11267;SDS011;49397;47.474;9.416;2022-12-18T14:32:09;40.50;;;16.17;;
11267;SDS011;49397;47.474;9.416;2022-12-18T14:34:37;37.30;;;16.87;;
11267;SDS011;49397;47.474;9.416;2022-12-18T14:37:03;30.90;;;15.90;;
11267;SDS011;49397;47.474;9.416;2022-12-18T14:39:29;29.17;;;14.23;;
11267;SDS011;49397;47.474;9.416;2022-12-18T14:41:55;34.00;;;15.30;;
11267;SDS011;49397;47.474;9.416;2022-12-18T14:44:20;31.60;;;14.43;;
11267;SDS011;49397;47.474;9.416;2022-12-18T14:46:46;39.67;;;17.60;;
11267;SDS011;49397;47.474;9.416;2022-12-18T14:51:49;31.60;;;16.07;;
11267;SDS011;49397;47.474;9.416;2022-12-18T14:54:18;35.50;;;16.13;;
11267;SDS011;49397;47.474;9.416;2022-12-18T14:56:46;31.57;;;16.00;;
11267;SDS011;49397;47.474;9.416;2022-12-18T14:59:19;37.80;;;16.90;;
11267;SDS011;49397;47.474;9.416;2022-12-18T15:04:31;30.33;;;15.43;;
11267;SDS011;49397;47.474;9.416;2022-12-18T15:07:23;31.10;;;14.50;;
11267;SDS011;49397;47.474;9.416;2022-12-18T15:10:02;38.20;;;15.60;;
11267;SDS011;49397;47.474;9.416;2022-12-18T15:13:05;32.70;;;14.43;;
11267;SDS011;49397;47.474;9.416;2022-12-18T15:20:32;33.77;;;14.50;;
11267;SDS011;49397;47.474;9.416;2022-12-18T15:23:05;30.57;;;15.07;;
11267;SDS011;49397;47.474;9.416;2022-12-18T15:25:41;32.37;;;14.87;;
11267;SDS011;49397;47.474;9.416;2022-12-18T15:28:44;36.13;;;16.07;;
11267;SDS011;49397;47.474;9.416;2022-12-18T15:33:39;33.23;;;15.30;;
11267;SDS011;49397;47.474;9.416;2022-12-18T15:36:11;34.03;;;14.70;;
11267;SDS011;49397;47.474;9.416;2022-12-18T15:38:38;41.70;;;16.40;;
11267;SDS011;49397;47.474;9.416;2022-12-18T15:41:04;36.90;;;15.30;;
11267;SDS011;49397;47.474;9.416;2022-12-18T15:43:29;33.80;;;15.83;;
11267;SDS011;49397;47.474;9.416;2022-12-18T15:48:40;37.57;;;15.33;;
11267;SDS011;49397;47.474;9.416;2022-12-18T15:51:21;35.53;;;15.77;;
11267;SDS011;49397;47.474;9.416;2022-12-18T15:53:50;48.13;;;20.20;;
11267;SDS011;49397;47.474;9.416;2022-12-18T15:56:17;43.80;;;19.27;;
11267;SDS011;49397;47.474;9.416;2022-12-18T15:59:02;38.60;;;16.67;;
11267;SDS011;49397;47.474;9.416;2022-12-18T16:01:33;38.63;;;15.97;;
11267;SDS011;49397;47.474;9.416;2022-12-18T16:03:59;42.50;;;19.77;;
11267;SDS011;49397;47.474;9.416;2022-12-18T16:06:25;36.17;;;16.87;;
11267;SDS011;49397;47.474;9.416;2022-12-18T16:08:50;36.97;;;16.23;;
11267;SDS011;49397;47.474;9.416;2022-12-18T16:11:23;30.53;;;15.40;;
11267;SDS011;49397;47.474;9.416;2022-12-18T16:14:27;39.57;;;16.30;;
11267;SDS011;49397;47.474;9.416;2022-12-18T16:16:58;40.90;;;16.40;;
11267;SDS011;49397;47.474;9.416;2022-12-18T16:19:25;39.67;;;17.40;;
11267;SDS011;49397;47.474;9.416;2022-12-18T16:21:52;36.87;;;17.60;;
11267;SDS011;49397;47.474;9.416;2022-12-18T16:24:21;32.87;;;15.10;;
11267;SDS011;49397;47.474;9.416;2022-12-18T16:26:51;39.47;;;16.77;;
11267;SDS011;49397;47.474;9.416;2022-12-18T16:29:18;35.60;;;16.10;;
11267;SDS011;49397;47.474;9.416;2022-12-18T16:31:52;51.23;;;23.93;;
11267;SDS011;49397;47.474;9.416;2022-12-18T16:34:23;42.63;;;17.37;;
11267;SDS011;49397;47.474;9.416;2022-12-18T16:36:55;39.40;;;17.17;;
11267;SDS011;49397;47.474;9.416;2022-12-18T16:39:22;37.53;;;15.83;;
11267;SDS011;49397;47.474;9.416;2022-12-18T16:41:47;40.17;;;18.13;;
11267;SDS011;49397;47.474;9.416;2022-12-18T16:44:13;43.57;;;18.43;;
11267;SDS011;49397;47.474;9.416;2022-12-18T16:46:39;40.40;;;17.17;;
11267;SDS011;49397;47.474;9.416;2022-12-18T16:49:08;40.37;;;16.17;;
11267;SDS011;49397;47.474;9.416;2022-12-18T16:51:34;35.67;;;16.10;;
11267;SDS011;49397;47.474;9.416;2022-12-18T16:54:00;48.10;;;20.00;;
11267;SDS011;49397;47.474;9.416;2022-12-18T16:56:26;42.20;;;16.80;;
11267;SDS011;49397;47.474;9.416;2022-12-18T16:58:55;35.80;;;16.17;;
11267;SDS011;49397;47.474;9.416;2022-12-18T17:01:22;49.50;;;17.63;;